createdAt,value
2018-10-03T00:02:19.410Z,16.37
2018-10-03T00:04:50.281Z,21.60
2018-10-03T00:07:18.438Z,14.57
2018-10-03T00:09:50.788Z,13.10
2018-10-03T00:14:58.508Z,11.70
2018-10-03T00:17:30.844Z,20.57
2018-10-03T00:20:03.204Z,18.83
2018-10-03T00:22:35.473Z,13.80
2018-10-03T00:25:03.612Z,17.77
2018-10-03T00:27:36.543Z,19.50
2018-10-03T00:30:06.904Z,15.50
2018-10-03T00:32:35.143Z,11.63
2018-10-03T00:35:08.263Z,18.20
2018-10-03T00:37:40.681Z,14.33
2018-10-03T00:40:12.008Z,12.27
2018-10-03T00:42:51.332Z,12.10
2018-10-03T00:45:21.559Z,16.80
2018-10-03T00:47:49.616Z,13.20
2018-10-03T00:50:20.491Z,14.43
2018-10-03T00:52:48.544Z,15.63
2018-10-03T00:55:22.948Z,14.70
2018-10-03T00:58:04.886Z,14.30
2018-10-03T01:00:32.929Z,16.07
2018-10-03T01:03:06.056Z,19.13
2018-10-03T01:05:34.329Z,15.73
2018-10-03T01:08:02.569Z,16.47
2018-10-03T01:10:40.038Z,13.27
2018-10-03T01:13:11.197Z,19.13
2018-10-03T01:15:42.063Z,16.70
2018-10-03T01:18:10.087Z,14.37
2018-10-03T01:20:43.156Z,15.43
2018-10-03T01:23:11.371Z,12.17
2018-10-03T01:25:45.853Z,17.93
2018-10-03T01:28:18.160Z,12.60
2018-10-03T01:30:51.108Z,16.50
2018-10-03T01:33:19.496Z,12.23
2018-10-03T01:35:47.695Z,13.27
2018-10-03T01:38:22.258Z,19.63
2018-10-03T01:40:55.513Z,15.23
2018-10-03T01:43:28.767Z,14.80
2018-10-03T01:46:02.295Z,14.40
2018-10-03T01:48:32.443Z,10.63
2018-10-03T01:51:00.682Z,14.87
2018-10-03T01:53:28.853Z,21.87
2018-10-03T01:56:03.295Z,11.00
2018-10-03T01:58:34.150Z,16.83
2018-10-03T02:01:02.306Z,15.73
2018-10-03T02:03:33.230Z,15.90
2018-10-03T02:06:01.368Z,16.90
2018-10-03T02:11:09.110Z,9.60
2018-10-03T02:13:41.212Z,11.27
2018-10-03T02:16:09.762Z,14.67
2018-10-03T02:18:40.991Z,15.87
2018-10-03T02:21:09.087Z,14.77
2018-10-03T02:23:43.798Z,11.90
2018-10-03T02:26:14.760Z,13.77
2018-10-03T02:28:54.761Z,13.27
2018-10-03T02:31:22.986Z,11.93
2018-10-03T02:34:02.785Z,11.20
2018-10-03T02:36:30.992Z,13.03
2018-10-03T02:39:01.146Z,16.30
2018-10-03T02:41:34.406Z,12.87
2018-10-03T02:44:04.637Z,12.83
2018-10-03T02:46:32.853Z,15.70
2018-10-03T02:49:03.860Z,9.40
2018-10-03T02:51:34.253Z,16.77
2018-10-03T02:54:02.577Z,10.37
2018-10-03T02:56:30.837Z,17.97
2018-10-03T02:59:05.404Z,14.00
2018-10-03T03:01:33.638Z,11.43
2018-10-03T03:04:08.114Z,8.40
2018-10-03T03:06:39.143Z,13.47
2018-10-03T03:09:13.045Z,12.80
2018-10-03T03:11:47.632Z,10.50
2018-10-03T03:14:17.829Z,16.07
2018-10-03T03:16:48.678Z,15.10
2018-10-03T03:19:16.794Z,13.40
2018-10-03T03:21:52.662Z,16.50
2018-10-03T03:24:20.906Z,11.83
2018-10-03T03:26:53.913Z,15.20
2018-10-03T03:29:25.057Z,14.03
2018-10-03T03:31:53.065Z,10.83
2018-10-03T03:34:24.346Z,13.70
2018-10-03T03:36:52.652Z,15.77
2018-10-03T03:39:20.801Z,17.77
2018-10-03T03:42:00.696Z,16.43
2018-10-03T03:44:29.204Z,11.50
2018-10-03T03:46:57.379Z,15.87
2018-10-03T03:49:25.655Z,14.50
2018-10-03T03:51:56.784Z,18.43
2018-10-03T03:54:26.873Z,11.37
2018-10-03T03:56:55.002Z,12.43
2018-10-03T03:59:28.205Z,10.23
2018-10-03T04:01:59.224Z,13.43
2018-10-03T04:04:30.159Z,10.90
2018-10-03T04:07:01.188Z,13.63
2018-10-03T04:09:33.465Z,12.83
2018-10-03T04:12:04.507Z,13.23
2018-10-03T04:14:32.705Z,12.43
2018-10-03T04:17:00.842Z,15.67
2018-10-03T04:19:31.740Z,16.67
2018-10-03T04:21:59.854Z,10.10
2018-10-03T04:24:39.825Z,13.33
2018-10-03T04:27:10.311Z,10.33
2018-10-03T04:29:38.628Z,14.27
2018-10-03T04:32:06.894Z,14.03
2018-10-03T04:34:51.641Z,12.03
2018-10-03T04:37:19.854Z,10.10
2018-10-03T04:39:48.007Z,15.17
2018-10-03T04:42:21.392Z,13.23
2018-10-03T04:44:52.641Z,17.50
2018-10-03T04:47:20.850Z,11.00
2018-10-03T04:49:49.327Z,13.50
2018-10-03T04:52:17.476Z,16.73
2018-10-03T04:54:48.370Z,14.07
2018-10-03T04:57:16.464Z,13.60
2018-10-03T04:59:48.689Z,11.73
2018-10-03T05:02:19.627Z,17.47
2018-10-03T05:04:48.691Z,15.17
2018-10-03T05:09:52.826Z,14.57
2018-10-03T05:12:25.908Z,11.20
2018-10-03T05:14:54.253Z,16.27
2018-10-03T05:17:22.414Z,13.70
2018-10-03T05:19:57.589Z,17.50
2018-10-03T05:22:31.196Z,13.70
2018-10-03T05:25:02.014Z,11.13
2018-10-03T05:27:30.098Z,18.93
2018-10-03T05:30:02.648Z,21.63
2018-10-03T05:32:33.657Z,14.53
2018-10-03T05:35:02.096Z,14.07
2018-10-03T05:37:30.189Z,15.27
2018-10-03T05:40:04.793Z,10.70
2018-10-03T05:42:35.628Z,11.30
2018-10-03T05:45:04.007Z,13.83
2018-10-03T05:47:32.233Z,15.50
2018-10-03T05:50:05.619Z,13.97
2018-10-03T05:52:40.230Z,14.97
2018-10-03T05:55:08.285Z,11.90
2018-10-03T05:57:41.365Z,12.37
2018-10-03T06:00:09.430Z,13.30
2018-10-03T06:02:44.078Z,13.67
2018-10-03T06:05:14.388Z,16.73
2018-10-03T06:07:48.902Z,14.17
2018-10-03T06:10:21.990Z,13.33
2018-10-03T06:12:54.297Z,15.43
2018-10-03T06:15:22.549Z,19.73
2018-10-03T06:17:50.670Z,11.50
2018-10-03T06:20:23.799Z,16.00
2018-10-03T06:22:53.907Z,14.57
2018-10-03T06:25:22.073Z,14.10
2018-10-03T06:27:55.893Z,11.33
2018-10-03T06:30:23.992Z,16.40
2018-10-03T06:32:59.307Z,20.07
2018-10-03T06:35:31.622Z,20.10
2018-10-03T06:38:10.241Z,11.87
2018-10-03T06:40:50.233Z,13.17
2018-10-03T06:43:18.419Z,13.27
2018-10-03T06:45:49.504Z,11.87
2018-10-03T06:51:02.577Z,15.73
2018-10-03T06:53:37.229Z,17.50
2018-10-03T06:56:08.076Z,15.97
2018-10-03T06:58:36.370Z,15.00
2018-10-03T07:01:04.513Z,18.27
2018-10-03T07:03:38.728Z,13.77
2018-10-03T07:06:12.017Z,17.20
2018-10-03T07:08:42.347Z,10.87
2018-10-03T07:11:10.411Z,14.47
2018-10-03T07:13:50.120Z,9.80
2018-10-03T07:16:18.653Z,13.13
2018-10-03T07:18:46.751Z,13.43
2018-10-03T07:21:26.527Z,15.00
2018-10-03T07:23:54.638Z,11.20
2018-10-03T07:26:29.435Z,14.53
2018-10-03T07:28:57.548Z,13.70
2018-10-03T07:31:30.674Z,13.80
2018-10-03T07:34:01.021Z,14.53
2018-10-03T07:36:29.114Z,11.93
2018-10-03T07:39:03.847Z,14.03
2018-10-03T07:41:32.027Z,16.73
2018-10-03T07:44:08.951Z,11.20
2018-10-03T07:46:39.326Z,15.50
2018-10-03T07:49:07.595Z,12.33
2018-10-03T07:51:39.964Z,12.60
2018-10-03T07:54:21.050Z,13.00
2018-10-03T07:56:52.294Z,9.53
2018-10-03T07:59:22.548Z,12.63
2018-10-03T08:01:50.585Z,9.57
2018-10-03T08:04:25.014Z,11.87
2018-10-03T08:06:59.528Z,12.57
2018-10-03T08:09:34.046Z,13.93
2018-10-03T08:12:08.578Z,14.27
2018-10-03T08:14:40.884Z,12.33
2018-10-03T08:17:11.696Z,14.30
2018-10-03T08:19:39.789Z,18.03
2018-10-03T08:22:10.582Z,11.70
2018-10-03T08:24:38.734Z,15.20
2018-10-03T08:27:20.858Z,9.57
2018-10-03T08:29:52.004Z,12.40
2018-10-03T08:32:20.335Z,11.33
2018-10-03T08:34:57.436Z,14.67
2018-10-03T08:37:29.732Z,17.27
2018-10-03T08:39:59.861Z,13.40
2018-10-03T08:42:27.957Z,12.70
2018-10-03T08:45:02.441Z,10.23
2018-10-03T08:47:33.270Z,15.97
2018-10-03T08:50:01.373Z,10.43
2018-10-03T08:52:39.979Z,6.37
2018-10-03T08:55:13.819Z,10.80
2018-10-03T08:57:44.712Z,9.13
2018-10-03T09:00:17.059Z,12.77
2018-10-03T09:02:49.098Z,9.00
2018-10-03T09:05:17.324Z,10.53
2018-10-03T09:07:59.936Z,9.47
2018-10-03T09:10:28.150Z,7.13
2018-10-03T09:13:01.217Z,12.00
2018-10-03T09:15:31.696Z,20.67
2018-10-03T09:18:07.476Z,10.93
2018-10-03T09:20:38.508Z,17.00
2018-10-03T09:23:07.027Z,12.00
2018-10-03T09:25:35.183Z,12.40
2018-10-03T09:28:03.307Z,8.77
2018-10-03T09:30:43.227Z,10.00
2018-10-03T09:33:11.343Z,12.33
2018-10-03T09:35:42.444Z,13.20
2018-10-03T09:38:12.731Z,16.87
2018-10-03T09:40:40.823Z,14.17
2018-10-03T09:43:15.142Z,13.83
2018-10-03T09:45:46.242Z,14.20
2018-10-03T09:48:14.859Z,11.23
2018-10-03T09:50:43.060Z,13.23
2018-10-03T09:53:11.476Z,12.13
2018-10-03T09:55:39.757Z,9.13
2018-10-03T09:58:10.777Z,7.97
2018-10-03T10:00:46.524Z,10.93
2018-10-03T10:03:17.402Z,8.13
2018-10-03T10:05:45.489Z,6.33
2018-10-03T10:08:16.359Z,13.47
2018-10-03T10:10:44.503Z,9.87
2018-10-03T10:13:18.904Z,9.87
2018-10-03T10:15:49.735Z,10.97
2018-10-03T10:18:18.016Z,9.67
2018-10-03T10:20:57.173Z,12.10
2018-10-03T10:23:37.787Z,13.30
2018-10-03T10:26:12.336Z,10.47
2018-10-03T10:28:44.634Z,10.17
2018-10-03T10:31:15.622Z,9.57
2018-10-03T10:33:43.714Z,14.00
2018-10-03T10:36:14.758Z,16.53
2018-10-03T10:38:44.896Z,9.17
2018-10-03T10:41:13.229Z,8.87
2018-10-03T10:43:47.983Z,7.73
2018-10-03T10:46:16.657Z,12.00
2018-10-03T10:48:47.811Z,7.97
2018-10-03T10:51:15.957Z,8.93
2018-10-03T10:53:49.089Z,10.73
2018-10-03T10:56:20.214Z,11.77
2018-10-03T10:58:48.673Z,8.73
2018-10-03T11:01:16.872Z,9.93
2018-10-03T11:03:47.853Z,9.13
2018-10-03T11:06:16.218Z,10.20
2018-10-03T11:08:47.229Z,8.27
2018-10-03T11:11:27.279Z,9.30
2018-10-03T11:13:55.429Z,6.83
2018-10-03T11:16:28.643Z,10.80
2018-10-03T11:18:59.478Z,9.40
2018-10-03T11:21:27.595Z,8.83
2018-10-03T11:24:02.347Z,4.80
2018-10-03T11:26:33.096Z,7.53
2018-10-03T11:29:01.257Z,11.93
2018-10-03T11:34:07.152Z,9.80
2018-10-03T11:36:44.397Z,7.17
2018-10-03T11:39:20.680Z,7.97
2018-10-03T11:41:51.674Z,9.33
2018-10-03T11:44:19.696Z,9.77
2018-10-03T11:46:55.047Z,10.47
2018-10-03T11:49:26.066Z,8.17
2018-10-03T11:51:54.230Z,8.20
2018-10-03T11:54:25.289Z,10.70
2018-10-03T11:56:53.637Z,9.33
2018-10-03T11:59:21.898Z,6.67
2018-10-03T12:01:54.394Z,4.63
2018-10-03T12:04:26.834Z,8.10
2018-10-03T12:06:57.006Z,11.03
2018-10-03T12:09:30.228Z,11.50
2018-10-03T12:12:00.549Z,7.10
2018-10-03T12:14:28.944Z,6.63
2018-10-03T12:16:57.116Z,12.83
2018-10-03T12:19:28.194Z,7.07
2018-10-03T12:21:58.499Z,7.57
2018-10-03T12:24:26.761Z,4.80
2018-10-03T12:26:57.565Z,4.60
2018-10-03T12:29:25.874Z,7.87
2018-10-03T12:31:54.027Z,6.17
2018-10-03T12:34:28.653Z,8.07
2018-10-03T12:36:59.500Z,5.87
2018-10-03T12:39:27.804Z,5.60
2018-10-03T12:41:55.839Z,9.10
2018-10-03T12:44:26.670Z,5.87
2018-10-03T12:46:54.861Z,13.33
2018-10-03T12:49:25.687Z,8.27
2018-10-03T12:51:53.875Z,6.17
2018-10-03T12:54:35.972Z,8.80
2018-10-03T12:57:06.484Z,7.13
2018-10-03T12:59:47.149Z,9.60
2018-10-03T13:02:20.140Z,6.37
2018-10-03T13:04:48.405Z,6.90
2018-10-03T13:07:16.485Z,7.73
2018-10-03T13:09:48.738Z,5.93
2018-10-03T13:12:20.676Z,5.53
2018-10-03T13:14:53.874Z,5.30
2018-10-03T13:17:26.260Z,6.03
2018-10-03T13:19:59.545Z,7.30
2018-10-03T13:22:41.393Z,4.10
2018-10-03T13:25:13.706Z,5.90
2018-10-03T13:27:44.578Z,5.10
2018-10-03T13:30:12.800Z,5.13
2018-10-03T13:32:45.797Z,6.47
2018-10-03T13:35:26.529Z,5.97
2018-10-03T13:38:00.961Z,5.47
2018-10-03T13:40:35.484Z,4.93
2018-10-03T13:43:08.506Z,4.80
2018-10-03T13:45:38.557Z,7.30
2018-10-03T13:48:09.802Z,7.37
2018-10-03T13:50:44.224Z,6.50
2018-10-03T13:53:15.460Z,6.63
2018-10-03T13:55:55.314Z,6.27
2018-10-03T13:58:28.470Z,5.60
2018-10-03T14:01:08.010Z,7.93
2018-10-03T14:03:49.925Z,8.83
2018-10-03T14:06:20.097Z,7.57
2018-10-03T14:08:48.341Z,7.87
2018-10-03T14:11:23.564Z,10.37
2018-10-03T14:13:55.838Z,9.67
2018-10-03T14:16:26.029Z,5.90
2018-10-03T14:18:54.160Z,7.23
2018-10-03T14:21:28.640Z,8.90
2018-10-03T14:24:03.150Z,11.60
2018-10-03T14:29:10.990Z,5.60
2018-10-03T14:31:47.544Z,6.50
2018-10-03T14:34:20.933Z,9.73
2018-10-03T14:36:57.431Z,10.83
2018-10-03T14:39:30.792Z,6.37
2018-10-03T14:42:01.528Z,7.03
2018-10-03T14:44:29.696Z,8.43
2018-10-03T14:47:00.840Z,5.83
2018-10-03T14:49:40.569Z,8.30
2018-10-03T14:52:12.816Z,7.37
2018-10-03T14:54:45.155Z,6.33
2018-10-03T14:57:27.245Z,8.97
2018-10-03T14:59:55.374Z,4.77
2018-10-03T15:02:33.800Z,7.60
2018-10-03T15:05:08.977Z,4.17
2018-10-03T15:07:41.144Z,7.27
2018-10-03T15:10:09.241Z,7.47
2018-10-03T15:12:43.890Z,5.37
2018-10-03T15:15:12.015Z,7.63
2018-10-03T15:17:51.918Z,9.47
2018-10-03T15:20:20.035Z,11.47
2018-10-03T15:22:51.015Z,10.77
2018-10-03T15:25:19.142Z,5.87
2018-10-03T15:27:51.440Z,7.87
2018-10-03T15:30:20.617Z,6.83
2018-10-03T15:33:00.664Z,9.57
2018-10-03T15:35:28.812Z,8.67
2018-10-03T15:38:00.029Z,7.77
2018-10-03T15:40:35.916Z,6.93
2018-10-03T15:43:03.993Z,9.87
2018-10-03T15:45:35.356Z,11.87
2018-10-03T15:48:13.542Z,7.50
2018-10-03T15:50:41.743Z,10.87
2018-10-03T15:53:17.052Z,4.27
2018-10-03T15:55:45.256Z,8.00
2018-10-03T15:58:16.706Z,8.17
2018-10-03T16:00:54.917Z,6.93
2018-10-03T16:03:23.198Z,6.97
2018-10-03T16:05:51.363Z,9.13
2018-10-03T16:08:26.578Z,9.37
2018-10-03T16:11:04.915Z,6.77
2018-10-03T16:13:44.633Z,6.40
2018-10-03T16:16:26.615Z,8.70
2018-10-03T16:19:12.746Z,7.97
2018-10-03T16:21:40.892Z,8.07
2018-10-03T16:24:15.338Z,10.07
2018-10-03T16:29:22.997Z,6.80
2018-10-03T16:31:53.456Z,8.30
2018-10-03T16:34:24.420Z,10.50
2018-10-03T16:36:52.574Z,8.50
2018-10-03T16:39:27.950Z,7.33
2018-10-03T16:42:00.290Z,9.17
2018-10-03T16:44:34.321Z,7.53
2018-10-03T16:47:02.439Z,10.47
2018-10-03T16:49:36.908Z,8.23
2018-10-03T16:52:08.015Z,8.83
2018-10-03T16:54:36.428Z,9.50
2018-10-03T16:57:06.650Z,6.13
2018-10-03T16:59:34.827Z,7.23
2018-10-03T17:02:05.828Z,7.90
2018-10-03T17:04:34.382Z,4.60
2018-10-03T17:07:02.679Z,9.40
2018-10-03T17:09:30.899Z,7.93
2018-10-03T17:12:04.050Z,10.13
2018-10-03T17:14:39.113Z,4.87
2018-10-03T17:17:07.710Z,8.83
2018-10-03T17:19:36.589Z,6.37
2018-10-03T17:22:12.357Z,7.40
2018-10-03T17:24:40.442Z,10.37
2018-10-03T17:27:21.296Z,6.87
2018-10-03T17:29:49.468Z,13.63
2018-10-03T17:32:29.419Z,8.77
2018-10-03T17:34:57.653Z,14.13
2018-10-03T17:37:25.843Z,11.40
2018-10-03T17:40:02.092Z,17.60
2018-10-03T17:42:40.274Z,13.33
2018-10-03T17:45:11.665Z,9.13
2018-10-03T17:47:39.833Z,11.17
2018-10-03T17:50:10.793Z,12.43
2018-10-03T17:52:40.914Z,8.40
2018-10-03T17:55:09.195Z,9.33
2018-10-03T17:57:40.157Z,6.60
2018-10-03T18:00:16.600Z,7.03
2018-10-03T18:02:44.852Z,9.10
2018-10-03T18:05:13.072Z,10.57
2018-10-03T18:07:52.958Z,10.90
2018-10-03T18:10:21.197Z,11.13
2018-10-03T18:12:49.268Z,9.87
2018-10-03T18:15:27.560Z,6.23
2018-10-03T18:18:07.364Z,9.37
2018-10-03T18:20:39.725Z,9.37
2018-10-03T18:23:10.200Z,10.20
2018-10-03T18:25:41.228Z,8.93
2018-10-03T18:28:11.381Z,10.97
2018-10-03T18:30:39.755Z,15.37
2018-10-03T18:35:47.770Z,8.37
2018-10-03T18:38:15.842Z,9.70
2018-10-03T18:40:49.893Z,5.60
2018-10-03T18:43:18.318Z,10.00
2018-10-03T18:45:46.516Z,10.67
2018-10-03T18:48:21.216Z,9.33
2018-10-03T18:50:49.702Z,10.93
2018-10-03T18:53:17.988Z,6.60
2018-10-03T18:55:54.850Z,6.87
2018-10-03T18:58:23.334Z,9.50
2018-10-03T19:00:51.549Z,9.43
2018-10-03T19:03:19.678Z,8.87
2018-10-03T19:05:54.634Z,9.43
2018-10-03T19:08:22.787Z,7.40
2018-10-03T19:10:57.819Z,7.87
2018-10-03T19:13:28.553Z,8.57
2018-10-03T19:15:59.700Z,8.97
2018-10-03T19:18:28.739Z,7.63
2018-10-03T19:21:01.598Z,8.23
2018-10-03T19:23:30.751Z,8.43
2018-10-03T19:26:05.200Z,6.97
2018-10-03T19:28:36.105Z,7.80
2018-10-03T19:31:07.480Z,11.77
2018-10-03T19:33:36.150Z,9.60
2018-10-03T19:36:16.011Z,6.60
2018-10-03T19:38:48.334Z,7.37
2018-10-03T19:41:18.621Z,10.10
2018-10-03T19:43:51.744Z,7.00
2018-10-03T19:46:20.291Z,9.60
2018-10-03T19:48:48.759Z,10.30
2018-10-03T19:51:16.917Z,11.10
2018-10-03T19:53:49.408Z,9.50
2018-10-03T19:56:20.548Z,6.10
2018-10-03T19:58:55.016Z,7.77
2018-10-03T20:01:37.786Z,6.90
2018-10-03T20:04:06.219Z,5.63
2018-10-03T20:06:38.435Z,8.63
2018-10-03T20:09:07.578Z,5.67
2018-10-03T20:11:50.661Z,11.17
2018-10-03T20:14:18.763Z,8.23
2018-10-03T20:16:53.232Z,6.20
2018-10-03T20:19:34.169Z,8.20
2018-10-03T20:22:08.508Z,6.30
2018-10-03T20:24:37.130Z,6.43
2018-10-03T20:27:05.383Z,6.27
2018-10-03T20:29:33.658Z,8.07
2018-10-03T20:32:07.961Z,5.80
2018-10-03T20:34:44.252Z,5.53
2018-10-03T20:39:58.269Z,10.80
2018-10-03T20:42:32.854Z,7.70
2018-10-03T20:45:03.878Z,7.30
2018-10-03T20:47:43.766Z,7.03
2018-10-03T20:50:19.677Z,9.70
2018-10-03T20:52:59.530Z,6.53
2018-10-03T20:55:30.667Z,7.97
2018-10-03T20:58:01.631Z,6.80
2018-10-03T21:00:29.807Z,8.33
2018-10-03T21:03:00.781Z,6.23
2018-10-03T21:05:29.002Z,12.33
2018-10-03T21:08:02.398Z,6.03
2018-10-03T21:10:33.153Z,10.33
2018-10-03T21:13:01.314Z,8.23
2018-10-03T21:15:35.924Z,9.83
2018-10-03T21:18:04.069Z,6.00
2018-10-03T21:20:34.978Z,7.17
2018-10-03T21:23:03.116Z,8.93
2018-10-03T21:25:38.345Z,6.93
2018-10-03T21:28:10.479Z,10.40
2018-10-03T21:30:38.838Z,10.27
2018-10-03T21:33:07.185Z,8.20
2018-10-03T21:35:41.691Z,7.80
2018-10-03T21:38:12.527Z,10.87
2018-10-03T21:40:40.867Z,7.67
2018-10-03T21:43:09.033Z,10.23
2018-10-03T21:45:43.578Z,12.50
2018-10-03T21:48:16.905Z,7.40
2018-10-03T21:50:52.129Z,8.27
2018-10-03T21:53:32.936Z,10.20
2018-10-03T21:56:01.082Z,10.03
2018-10-03T21:58:32.167Z,7.00
2018-10-03T22:01:00.287Z,6.47
2018-10-03T22:03:32.561Z,8.07
2018-10-03T22:06:03.456Z,8.60
2018-10-03T22:08:31.635Z,9.63
2018-10-03T22:11:09.169Z,6.83
2018-10-03T22:13:41.480Z,7.57
2018-10-03T22:16:15.820Z,8.40
2018-10-03T22:18:48.150Z,12.27
2018-10-03T22:21:28.248Z,7.87
2018-10-03T22:23:56.441Z,11.03
2018-10-03T22:26:28.728Z,6.67
2018-10-03T22:29:04.779Z,13.60
2018-10-03T22:31:35.126Z,8.43
2018-10-03T22:34:03.273Z,12.50
2018-10-03T22:36:35.609Z,7.43
2018-10-03T22:39:14.472Z,11.23
2018-10-03T22:41:42.746Z,9.67
2018-10-03T22:44:10.849Z,11.33
2018-10-03T22:46:41.784Z,10.00
2018-10-03T22:49:09.931Z,10.80
2018-10-03T22:51:46.797Z,9.37
2018-10-03T22:54:14.892Z,8.63
2018-10-03T22:56:51.001Z,10.27
2018-10-03T22:59:30.805Z,9.30
2018-10-03T23:02:07.801Z,10.53
2018-10-03T23:04:38.602Z,13.77
2018-10-03T23:07:12.817Z,12.80
2018-10-03T23:09:46.092Z,7.03
2018-10-03T23:12:17.130Z,10.67
2018-10-03T23:14:51.053Z,12.20
2018-10-03T23:17:21.263Z,6.97
2018-10-03T23:19:49.370Z,8.90
2018-10-03T23:22:23.781Z,11.23
2018-10-03T23:25:03.692Z,5.27
2018-10-03T23:27:31.826Z,10.20
2018-10-03T23:30:06.312Z,8.63
2018-10-03T23:32:40.338Z,9.00
2018-10-03T23:35:18.732Z,7.30
2018-10-03T23:37:58.720Z,7.00
2018-10-03T23:40:26.861Z,6.37
2018-10-03T23:43:06.775Z,6.97
2018-10-03T23:45:35.057Z,7.20
2018-10-03T23:48:03.177Z,11.17
2018-10-03T23:50:34.178Z,12.40
2018-10-03T23:53:02.369Z,9.47
2018-10-03T23:55:35.319Z,7.80
2018-10-03T23:58:03.632Z,6.40
